createdAt,value
2022-11-01T00:00:14.350Z,30.77
2022-11-01T00:02:21.103Z,32.97
2022-11-01T00:04:28.486Z,31.50
2022-11-01T00:06:35.427Z,31.33
2022-11-01T00:08:42.620Z,32.15
2022-11-01T00:10:49.531Z,32.17
2022-11-01T00:12:58.715Z,31.50
2022-11-01T00:15:05.751Z,33.58
2022-11-01T00:17:12.927Z,34.03
2022-11-01T00:19:20.111Z,33.35
2022-11-01T00:21:27.671Z,32.90
2022-11-01T00:23:34.427Z,35.08
2022-11-01T00:25:41.320Z,35.30
2022-11-01T00:27:48.535Z,34.92
2022-11-01T00:29:57.144Z,35.45
2022-11-01T00:32:04.267Z,36.15
2022-11-01T00:34:11.194Z,35.30
2022-11-01T00:36:18.702Z,37.80
2022-11-01T00:38:25.471Z,37.10
2022-11-01T00:40:32.777Z,37.08
2022-11-01T00:42:39.516Z,36.40
2022-11-01T00:44:46.443Z,36.60
2022-11-01T00:46:55.035Z,34.83
2022-11-01T00:49:02.165Z,32.72
2022-11-01T00:51:09.262Z,28.55
2022-11-01T00:53:16.518Z,28.95
2022-11-01T00:55:23.898Z,28.42
2022-11-01T00:57:30.819Z,26.88
2022-11-01T00:59:40.880Z,27.60
2022-11-01T01:01:48.309Z,26.42
2022-11-01T01:03:57.040Z,23.80
2022-11-01T01:06:04.003Z,23.55
2022-11-01T01:08:10.939Z,22.33
2022-11-01T01:10:18.349Z,19.92
2022-11-01T01:12:25.249Z,19.88
2022-11-01T01:17:04.280Z,15.90
2022-11-01T01:19:12.898Z,13.88
2022-11-01T01:21:19.776Z,14.90
2022-11-01T01:23:26.830Z,13.73
2022-11-01T01:25:33.574Z,12.98
2022-11-01T01:27:40.588Z,13.05
2022-11-01T01:29:47.991Z,13.18
2022-11-01T01:31:54.907Z,13.15
2022-11-01T01:34:01.903Z,13.32
2022-11-01T01:36:11.223Z,12.30
2022-11-01T01:38:18.417Z,13.10
2022-11-01T01:40:25.163Z,12.82
2022-11-01T01:42:32.897Z,12.43
2022-11-01T01:45:15.622Z,12.80
2022-11-01T01:49:33.780Z,11.68
2022-11-01T01:51:44.156Z,12.10
2022-11-01T01:53:54.541Z,11.57
2022-11-01T01:56:04.130Z,11.68
2022-11-01T01:58:13.434Z,10.82
2022-11-01T02:00:20.599Z,13.27
2022-11-01T02:02:27.634Z,11.63
2022-11-01T02:04:38.879Z,12.07
2022-11-01T02:06:47.409Z,11.47
2022-11-01T02:08:57.316Z,12.23
2022-11-01T02:11:05.724Z,12.15
2022-11-01T02:13:17.059Z,12.10
2022-11-01T02:15:26.906Z,11.57
2022-11-01T02:17:42.002Z,12.13
2022-11-01T02:20:22.602Z,11.95
2022-11-01T02:22:46.387Z,11.23
2022-11-01T02:25:23.954Z,12.18
2022-11-01T02:27:37.945Z,11.57
2022-11-01T02:30:07.908Z,11.88
2022-11-01T02:32:22.978Z,11.23
2022-11-01T02:34:37.046Z,11.15
2022-11-01T02:36:47.200Z,10.75
2022-11-01T02:38:59.941Z,10.00
2022-11-01T02:41:13.975Z,11.23
2022-11-01T02:43:24.124Z,11.55
2022-11-01T02:45:35.313Z,10.68
2022-11-01T02:47:45.010Z,10.95
2022-11-01T02:49:54.127Z,11.20
2022-11-01T02:52:02.495Z,10.95
2022-11-01T02:54:11.558Z,10.98
2022-11-01T02:56:20.828Z,10.88
2022-11-01T02:58:30.529Z,11.23
2022-11-01T03:00:38.695Z,10.68
2022-11-01T03:02:49.546Z,10.30
2022-11-01T03:04:56.350Z,10.10
2022-11-01T03:07:07.910Z,10.95
2022-11-01T03:09:16.536Z,10.45
2022-11-01T03:11:24.769Z,10.00
2022-11-01T03:13:44.792Z,10.13
2022-11-01T03:15:59.775Z,10.32
2022-11-01T03:18:13.360Z,11.18
2022-11-01T03:20:25.485Z,9.35
2022-11-01T03:22:39.120Z,9.88
2022-11-01T03:24:51.220Z,10.13
2022-11-01T03:27:05.036Z,9.13
2022-11-01T03:29:14.937Z,9.57
2022-11-01T03:31:25.529Z,9.85
2022-11-01T03:33:36.062Z,10.07
2022-11-01T03:35:45.111Z,10.88
2022-11-01T03:37:54.028Z,10.68
2022-11-01T03:40:05.425Z,9.60
2022-11-01T03:42:17.369Z,9.50
2022-11-01T03:44:24.443Z,9.40
2022-11-01T03:46:31.471Z,8.30
2022-11-01T03:48:42.703Z,9.00
2022-11-01T03:50:53.947Z,8.93
2022-11-01T03:53:00.960Z,9.15
2022-11-01T03:55:19.111Z,8.57
2022-11-01T03:57:26.509Z,8.65
2022-11-01T03:59:33.346Z,9.00
2022-11-01T04:01:40.895Z,8.60
2022-11-01T04:03:49.814Z,7.80
2022-11-01T04:05:56.687Z,8.15
2022-11-01T04:08:03.582Z,7.93
2022-11-01T04:10:11.520Z,8.10
2022-11-01T04:12:18.261Z,8.10
2022-11-01T04:14:41.435Z,7.85
2022-11-01T04:17:04.920Z,7.97
2022-11-01T04:19:30.231Z,8.00
2022-11-01T04:21:37.523Z,8.43
2022-11-01T04:23:44.413Z,7.82
2022-11-01T04:25:51.313Z,8.02
2022-11-01T04:27:58.596Z,7.40
2022-11-01T04:30:05.908Z,7.25
2022-11-01T04:32:12.868Z,8.20
2022-11-01T04:34:41.459Z,7.95
2022-11-01T04:36:48.927Z,7.22
2022-11-01T04:38:58.261Z,8.45
2022-11-01T04:41:05.422Z,7.53
2022-11-01T04:43:12.305Z,7.60
2022-11-01T04:45:19.440Z,7.40
2022-11-01T04:47:26.278Z,7.90
2022-11-01T04:49:35.289Z,6.85
2022-11-01T04:51:42.537Z,6.95
2022-11-01T04:53:49.582Z,6.78
2022-11-01T04:55:56.448Z,6.57
2022-11-01T04:58:03.236Z,6.90
2022-11-01T05:00:12.762Z,6.78
2022-11-01T05:02:20.097Z,6.85
2022-11-01T05:04:27.504Z,6.90
2022-11-01T05:06:36.353Z,7.03
2022-11-01T05:08:44.164Z,6.53
2022-11-01T05:10:55.455Z,6.78
2022-11-01T05:13:02.493Z,6.32
2022-11-01T05:15:11.112Z,6.70
2022-11-01T05:17:18.016Z,6.28
2022-11-01T05:19:25.129Z,7.13
2022-11-01T05:21:31.982Z,6.90
2022-11-01T05:23:40.963Z,6.50
2022-11-01T05:25:48.119Z,6.93
2022-11-01T05:27:55.191Z,6.97
2022-11-01T05:30:02.048Z,7.00
2022-11-01T05:32:09.204Z,6.60
2022-11-01T05:34:16.565Z,6.18
2022-11-01T05:36:23.711Z,6.75
2022-11-01T05:38:30.599Z,6.90
2022-11-01T05:40:39.571Z,6.22
2022-11-01T05:42:46.419Z,6.32
2022-11-01T05:44:53.575Z,6.50
2022-11-01T05:47:00.693Z,6.43
2022-11-01T05:49:07.985Z,6.57
2022-11-01T05:51:14.931Z,7.40
2022-11-01T05:53:21.883Z,6.25
2022-11-01T05:55:28.643Z,6.60
2022-11-01T05:57:37.353Z,6.55
2022-11-01T05:59:44.251Z,6.43
2022-11-01T06:01:51.589Z,6.38
2022-11-01T06:04:02.702Z,6.30
2022-11-01T06:06:10.021Z,6.20
2022-11-01T06:08:16.773Z,6.43
2022-11-01T06:10:23.833Z,6.65
2022-11-01T06:12:30.686Z,6.60
2022-11-01T06:14:39.552Z,8.35
2022-11-01T06:16:47.422Z,13.05
2022-11-01T06:18:54.423Z,7.75
2022-11-01T06:21:01.932Z,5.82
2022-11-01T06:23:13.753Z,7.03
2022-11-01T06:25:21.436Z,5.60
2022-11-01T06:27:28.368Z,5.75
2022-11-01T06:29:35.494Z,5.60
2022-11-01T06:31:44.009Z,6.72
2022-11-01T06:33:53.083Z,5.85
2022-11-01T06:35:59.866Z,6.00
2022-11-01T06:38:07.810Z,5.30
2022-11-01T06:40:15.820Z,5.47
2022-11-01T06:42:23.143Z,5.32
2022-11-01T06:44:29.940Z,5.70
2022-11-01T06:46:37.145Z,5.70
2022-11-01T06:48:45.746Z,5.32
2022-11-01T06:50:54.735Z,5.75
2022-11-01T06:53:01.755Z,6.22
2022-11-01T06:55:09.618Z,5.60
2022-11-01T06:57:16.414Z,5.50
2022-11-01T06:59:23.161Z,5.10
2022-11-01T07:01:30.351Z,5.70
2022-11-01T07:03:37.587Z,5.63
2022-11-01T07:05:46.218Z,5.72
2022-11-01T07:07:53.739Z,4.95
2022-11-01T07:10:02.549Z,5.90
2022-11-01T07:12:09.993Z,5.57
2022-11-01T07:14:17.047Z,5.20
2022-11-01T07:16:24.117Z,5.95
2022-11-01T07:18:32.794Z,5.63
2022-11-01T07:20:43.884Z,5.95
2022-11-01T07:22:59.779Z,5.40
2022-11-01T07:25:07.552Z,6.05
2022-11-01T07:27:19.443Z,5.43
2022-11-01T07:29:27.932Z,5.20
2022-11-01T07:31:36.045Z,6.05
2022-11-01T07:33:47.283Z,5.70
2022-11-01T07:35:54.383Z,6.57
2022-11-01T07:38:06.698Z,5.45
2022-11-01T07:40:18.565Z,11.38
2022-11-01T07:42:25.322Z,7.53
2022-11-01T07:44:32.042Z,5.65
2022-11-01T07:46:39.079Z,7.15
2022-11-01T07:48:45.797Z,6.40
2022-11-01T07:50:52.875Z,5.32
2022-11-01T07:53:08.634Z,5.28
2022-11-01T07:55:15.473Z,5.35
2022-11-01T07:57:22.332Z,5.55
2022-11-01T07:59:29.413Z,5.68
2022-11-01T08:01:36.392Z,5.53
2022-11-01T08:03:43.371Z,5.55
2022-11-01T08:05:50.993Z,5.70
2022-11-01T08:07:57.709Z,5.47
2022-11-01T08:10:06.538Z,5.03
2022-11-01T08:12:13.285Z,5.82
2022-11-01T08:14:20.409Z,5.78
2022-11-01T08:16:27.211Z,5.20
2022-11-01T08:18:34.552Z,5.88
2022-11-01T08:20:41.938Z,5.68
2022-11-01T08:22:48.986Z,5.40
2022-11-01T08:24:56.299Z,5.35
2022-11-01T08:27:05.309Z,5.28
2022-11-01T08:29:12.266Z,5.80
2022-11-01T08:31:19.018Z,5.88
2022-11-01T08:33:25.843Z,5.95
2022-11-01T08:35:33.464Z,5.95
2022-11-01T08:37:40.217Z,5.15
2022-11-01T08:39:47.018Z,5.43
2022-11-01T08:41:54.733Z,5.13
2022-11-01T08:44:04.023Z,5.20
2022-11-01T08:46:11.855Z,4.90
2022-11-01T08:48:18.669Z,5.00
2022-11-01T08:50:25.458Z,5.13
2022-11-01T08:52:32.310Z,4.53
2022-11-01T08:54:39.090Z,4.75
2022-11-01T08:56:45.879Z,4.90
2022-11-01T08:58:53.268Z,4.78
2022-11-01T09:01:01.961Z,5.20
2022-11-01T09:03:09.180Z,5.53
2022-11-01T09:05:15.922Z,4.88
2022-11-01T09:07:22.937Z,4.32
2022-11-01T09:09:30.358Z,4.80
2022-11-01T09:11:37.246Z,4.53
2022-11-01T09:13:44.386Z,4.68
2022-11-01T09:15:51.708Z,4.32
2022-11-01T09:18:00.624Z,4.65
2022-11-01T09:20:08.003Z,5.15
2022-11-01T09:22:14.874Z,4.75
2022-11-01T09:24:21.785Z,4.82
2022-11-01T09:26:30.252Z,5.13
2022-11-01T09:28:37.571Z,4.72
2022-11-01T09:30:49.735Z,5.78
2022-11-01T09:33:10.989Z,4.82
2022-11-01T09:35:19.070Z,5.10
2022-11-01T09:37:26.375Z,5.13
2022-11-01T09:39:33.489Z,5.25
2022-11-01T09:41:43.761Z,5.10
2022-11-01T09:43:52.518Z,4.90
2022-11-01T09:46:01.378Z,4.70
2022-11-01T09:48:11.246Z,4.88
2022-11-01T09:50:23.593Z,5.13
2022-11-01T09:52:30.352Z,4.70
2022-11-01T09:54:37.793Z,5.28
2022-11-01T09:56:48.298Z,4.65
2022-11-01T09:59:04.933Z,4.72
2022-11-01T10:01:32.108Z,5.38
2022-11-01T10:03:52.912Z,4.93
2022-11-01T10:06:06.083Z,4.70
2022-11-01T10:08:19.748Z,5.20
2022-11-01T10:10:39.042Z,4.97
2022-11-01T10:13:00.202Z,4.53
2022-11-01T10:15:28.021Z,4.72
2022-11-01T10:17:52.108Z,4.65
2022-11-01T10:20:01.467Z,5.43
2022-11-01T10:22:15.199Z,5.25
2022-11-01T10:24:31.847Z,6.05
2022-11-01T10:26:45.370Z,7.00
2022-11-01T10:29:00.819Z,6.78
2022-11-01T10:31:13.785Z,7.05
2022-11-01T10:33:30.132Z,6.72
2022-11-01T10:35:41.743Z,7.80
2022-11-01T10:40:22.407Z,7.20
2022-11-01T10:42:32.206Z,9.02
2022-11-01T10:44:43.106Z,9.85
2022-11-01T10:46:52.854Z,7.97
2022-11-01T10:49:03.514Z,7.72
2022-11-01T10:51:14.207Z,6.80
2022-11-01T10:53:22.958Z,6.97
2022-11-01T10:55:38.118Z,7.07
2022-11-01T10:57:50.451Z,6.95
2022-11-01T10:59:59.356Z,7.68
2022-11-01T11:02:11.516Z,8.23
2022-11-01T11:04:22.532Z,7.65
2022-11-01T11:06:31.357Z,7.60
2022-11-01T11:08:41.632Z,7.20
2022-11-01T11:10:49.826Z,7.40
2022-11-01T11:13:00.648Z,8.07
2022-11-01T11:15:21.290Z,7.63
2022-11-01T11:17:31.725Z,8.07
2022-11-01T11:19:40.164Z,8.50
2022-11-01T11:21:51.290Z,8.02
2022-11-01T11:23:58.125Z,8.23
2022-11-01T11:26:06.343Z,8.30
2022-11-01T11:28:28.098Z,7.93
2022-11-01T11:30:36.332Z,8.63
2022-11-01T11:32:51.222Z,8.32
2022-11-01T11:35:00.566Z,9.13
2022-11-01T11:37:11.422Z,9.10
2022-11-01T11:39:28.941Z,8.27
2022-11-01T11:41:37.876Z,9.10
2022-11-01T11:43:44.767Z,9.65
2022-11-01T11:46:07.745Z,10.38
2022-11-01T11:48:25.013Z,10.77
2022-11-01T11:50:38.862Z,10.00
2022-11-01T11:52:48.073Z,10.02
2022-11-01T11:54:55.013Z,10.13
2022-11-01T11:57:13.718Z,10.25
2022-11-01T11:59:27.022Z,8.93
2022-11-01T12:01:35.457Z,11.27
2022-11-01T12:03:51.585Z,11.45
2022-11-01T12:06:02.490Z,13.98
2022-11-01T12:08:28.150Z,14.35
2022-11-01T12:10:39.999Z,14.05
2022-11-01T12:15:05.453Z,14.90
2022-11-01T12:17:34.019Z,15.77
2022-11-01T12:19:40.833Z,16.33
2022-11-01T12:21:48.727Z,16.52
2022-11-01T12:24:04.078Z,14.93
2022-11-01T12:26:16.684Z,13.27
2022-11-01T12:28:30.026Z,13.38
2022-11-01T12:30:41.204Z,13.93
2022-11-01T12:32:54.067Z,13.60
2022-11-01T12:35:04.324Z,14.75
2022-11-01T12:37:20.003Z,15.00
2022-11-01T12:39:38.602Z,14.85
2022-11-01T12:41:49.931Z,15.15
2022-11-01T12:44:07.203Z,14.95
2022-11-01T12:46:20.833Z,13.60
2022-11-01T12:48:32.109Z,13.63
2022-11-01T12:50:45.999Z,13.93
2022-11-01T12:52:59.091Z,14.32
2022-11-01T12:55:20.630Z,14.85
2022-11-01T12:57:28.433Z,14.98
2022-11-01T12:59:39.915Z,16.42
2022-11-01T13:01:55.384Z,15.98
2022-11-01T13:04:19.112Z,15.82
2022-11-01T13:06:51.175Z,17.83
2022-11-01T13:11:21.718Z,16.88
2022-11-01T13:13:35.863Z,17.00
2022-11-01T13:15:54.160Z,17.33
2022-11-01T13:18:12.805Z,17.25
2022-11-01T13:20:40.683Z,17.02
2022-11-01T13:22:55.432Z,18.25
2022-11-01T13:25:08.451Z,17.30
2022-11-01T13:27:24.439Z,16.45
2022-11-01T13:29:38.942Z,16.40
2022-11-01T13:31:54.108Z,16.50
2022-11-01T13:34:13.527Z,16.80
2022-11-01T13:36:28.732Z,16.60
2022-11-01T13:38:46.122Z,16.00
2022-11-01T13:41:02.313Z,17.52
2022-11-01T13:43:15.688Z,15.35
2022-11-01T13:45:52.463Z,15.68
2022-11-01T13:48:08.759Z,15.82
2022-11-01T13:50:49.220Z,16.40
2022-11-01T13:53:02.139Z,16.63
2022-11-01T13:55:22.323Z,16.35
2022-11-01T13:57:31.246Z,16.88
2022-11-01T13:59:48.462Z,19.02
2022-11-01T14:02:08.324Z,17.73
2022-11-01T14:04:41.895Z,19.42
2022-11-01T14:06:54.450Z,17.85
2022-11-01T14:09:32.966Z,17.02
2022-11-01T14:11:50.851Z,17.55
2022-11-01T14:13:57.929Z,17.40
2022-11-01T14:16:25.486Z,16.60
2022-11-01T14:18:33.080Z,16.55
2022-11-01T14:20:54.341Z,17.17
2022-11-01T14:23:23.231Z,17.60
2022-11-01T14:25:35.381Z,17.13
2022-11-01T14:27:50.411Z,17.52
2022-11-01T14:29:59.725Z,17.38
2022-11-01T14:32:09.262Z,17.50
2022-11-01T14:34:28.587Z,17.42
2022-11-01T14:36:40.783Z,18.63
2022-11-01T14:38:55.946Z,18.38
2022-11-01T14:41:03.950Z,18.13
2022-11-01T14:43:21.009Z,17.85
2022-11-01T14:45:34.182Z,18.65
2022-11-01T14:47:45.566Z,18.90
2022-11-01T14:49:53.974Z,18.70
2022-11-01T14:52:04.739Z,18.13
2022-11-01T14:54:20.215Z,18.42
2022-11-01T14:56:40.717Z,19.13
2022-11-01T14:58:48.864Z,17.92
2022-11-01T15:00:57.471Z,18.85
2022-11-01T15:03:09.370Z,19.20
2022-11-01T15:05:18.958Z,19.30
2022-11-01T15:07:30.887Z,19.88
2022-11-01T15:09:39.057Z,19.08
2022-11-01T15:11:46.393Z,19.73
2022-11-01T15:13:55.826Z,19.15
2022-11-01T15:16:13.350Z,20.00
2022-11-01T15:18:23.755Z,17.88
2022-11-01T15:20:35.341Z,19.85
2022-11-01T15:22:44.110Z,20.30
2022-11-01T15:24:55.747Z,20.90
2022-11-01T15:27:09.073Z,21.92
2022-11-01T15:29:21.220Z,21.67
2022-11-01T15:31:29.324Z,21.25
2022-11-01T15:33:38.862Z,20.08
2022-11-01T15:35:46.554Z,21.42
2022-11-01T15:37:56.040Z,21.13
2022-11-01T15:40:03.631Z,20.38
2022-11-01T15:42:18.601Z,18.77
2022-11-01T15:44:27.109Z,19.98
2022-11-01T15:46:36.388Z,20.08
2022-11-01T15:48:45.158Z,20.55
2022-11-01T15:50:55.667Z,20.52
2022-11-01T15:53:05.896Z,19.98
2022-11-01T15:55:21.037Z,19.63
2022-11-01T15:57:31.958Z,20.77
2022-11-01T15:59:45.590Z,21.10
2022-11-01T16:01:53.854Z,20.83
2022-11-01T16:04:08.555Z,20.60
2022-11-01T16:06:20.602Z,22.02
2022-11-01T16:08:32.340Z,20.95
2022-11-01T16:10:39.879Z,21.60
2022-11-01T16:12:49.570Z,21.98
2022-11-01T16:14:59.208Z,21.67
2022-11-01T16:17:08.484Z,20.75
2022-11-01T16:21:52.090Z,19.50
2022-11-01T16:24:09.213Z,20.65
2022-11-01T16:26:16.897Z,20.42
2022-11-01T16:28:39.644Z,19.85
2022-11-01T16:30:51.535Z,19.52
2022-11-01T16:32:58.973Z,20.83
2022-11-01T16:35:32.471Z,20.88
2022-11-01T16:37:47.537Z,20.77
2022-11-01T16:39:54.719Z,20.55
2022-11-01T16:42:02.467Z,21.63
2022-11-01T16:44:17.788Z,21.17
2022-11-01T16:46:25.992Z,21.17
2022-11-01T16:48:35.068Z,21.55
2022-11-01T16:50:42.197Z,20.75
2022-11-01T16:52:51.378Z,22.15
2022-11-01T16:57:07.941Z,19.60
2022-11-01T16:59:30.743Z,20.05
2022-11-01T17:01:38.363Z,21.20
2022-11-01T17:03:45.413Z,21.00
2022-11-01T17:05:56.239Z,19.25
2022-11-01T17:08:05.900Z,19.67
2022-11-01T17:10:20.727Z,20.05
2022-11-01T17:12:28.063Z,21.20
2022-11-01T17:14:37.171Z,23.30
2022-11-01T17:16:47.774Z,24.13
2022-11-01T17:18:58.572Z,22.23
2022-11-01T17:21:08.976Z,22.25
2022-11-01T17:23:21.737Z,22.33
2022-11-01T17:25:30.967Z,21.38
2022-11-01T17:27:38.864Z,23.67
2022-11-01T17:29:46.098Z,21.08
2022-11-01T17:31:53.177Z,21.50
2022-11-01T17:34:00.769Z,20.33
2022-11-01T17:36:08.411Z,21.67
2022-11-01T17:38:20.714Z,21.30
2022-11-01T17:40:28.712Z,21.73
2022-11-01T17:42:36.202Z,22.98
2022-11-01T17:44:43.286Z,23.90
2022-11-01T17:46:50.312Z,23.45
2022-11-01T17:48:58.105Z,23.40
2022-11-01T17:51:05.444Z,22.80
2022-11-01T17:53:18.459Z,24.13
2022-11-01T17:55:25.488Z,23.25
2022-11-01T17:57:32.821Z,23.23
2022-11-01T17:59:39.849Z,24.48
2022-11-01T18:01:47.355Z,23.92
2022-11-01T18:03:54.725Z,24.05
2022-11-01T18:06:02.780Z,24.60
2022-11-01T18:08:21.839Z,23.90
2022-11-01T18:10:40.234Z,22.60
2022-11-01T18:13:08.714Z,22.15
2022-11-01T18:15:25.010Z,22.35
2022-11-01T18:17:48.500Z,23.60
2022-11-01T18:20:00.876Z,23.23
2022-11-01T18:24:35.719Z,22.15
2022-11-01T18:26:43.106Z,22.17
2022-11-01T18:28:50.442Z,21.83
2022-11-01T18:30:59.927Z,20.80
2022-11-01T18:33:13.457Z,23.70
2022-11-01T18:35:31.926Z,22.90
2022-11-01T18:37:44.208Z,22.25
2022-11-01T18:40:01.599Z,23.20
2022-11-01T18:42:12.339Z,23.25
2022-11-01T18:44:19.355Z,22.75
2022-11-01T18:46:27.763Z,22.83
2022-11-01T18:48:35.779Z,23.10
2022-11-01T18:50:43.103Z,22.83
2022-11-01T18:52:50.346Z,23.55
2022-11-01T18:54:59.065Z,24.05
2022-11-01T18:57:15.206Z,23.60
2022-11-01T18:59:31.962Z,22.35
2022-11-01T19:01:41.536Z,23.50
2022-11-01T19:03:48.782Z,24.27
2022-11-01T19:05:55.913Z,23.98
2022-11-01T19:08:20.869Z,23.40
2022-11-01T19:10:29.989Z,22.75
2022-11-01T19:12:41.137Z,23.00
2022-11-01T19:14:52.986Z,22.05
2022-11-01T19:17:01.619Z,22.23
2022-11-01T19:19:17.095Z,21.42
2022-11-01T19:21:26.274Z,21.63
2022-11-01T19:23:40.010Z,22.58
2022-11-01T19:25:48.882Z,22.73
2022-11-01T19:27:58.932Z,22.35
2022-11-01T19:30:06.421Z,21.58
2022-11-01T19:32:17.439Z,22.67
2022-11-01T19:34:27.029Z,22.17
2022-11-01T19:36:40.932Z,21.17
2022-11-01T19:38:49.074Z,20.92
2022-11-01T19:40:58.352Z,22.27
2022-11-01T19:43:15.108Z,20.48
2022-11-01T19:45:35.550Z,21.50
2022-11-01T19:47:43.552Z,21.10
2022-11-01T19:49:50.893Z,21.52
2022-11-01T19:52:18.037Z,21.15
2022-11-01T19:54:25.115Z,20.38
2022-11-01T19:56:35.677Z,20.17
2022-11-01T19:58:47.063Z,20.58
2022-11-01T20:00:55.553Z,21.17
2022-11-01T20:03:05.919Z,20.07
2022-11-01T20:05:30.270Z,20.45
2022-11-01T20:07:37.594Z,19.98
2022-11-01T20:09:45.187Z,21.35
2022-11-01T20:11:54.263Z,22.08
2022-11-01T20:14:01.343Z,21.05
2022-11-01T20:16:08.624Z,22.00
2022-11-01T20:18:15.859Z,22.27
2022-11-01T20:20:23.141Z,22.27
2022-11-01T20:22:30.783Z,21.77
2022-11-01T20:24:37.863Z,21.85
2022-11-01T20:26:44.943Z,21.73
2022-11-01T20:28:53.966Z,21.17
2022-11-01T20:31:01.199Z,21.08
2022-11-01T20:33:08.791Z,20.75
2022-11-01T20:35:15.818Z,21.02
2022-11-01T20:37:28.594Z,21.77
2022-11-01T20:39:35.919Z,23.33
2022-11-01T20:41:42.893Z,22.23
2022-11-01T20:43:52.482Z,23.48
2022-11-01T20:45:59.666Z,23.25
2022-11-01T20:48:08.483Z,24.88
2022-11-01T20:50:17.354Z,25.33
2022-11-01T20:52:39.316Z,25.10
2022-11-01T20:54:47.436Z,25.05
2022-11-01T20:56:54.672Z,23.33
2022-11-01T20:59:03.654Z,25.30
2022-11-01T21:01:17.380Z,25.35
2022-11-01T21:03:25.735Z,25.83
2022-11-01T21:05:35.785Z,28.27
2022-11-01T21:07:47.975Z,27.83
2022-11-01T21:09:55.883Z,28.60
2022-11-01T21:12:03.169Z,29.38
2022-11-01T21:14:16.901Z,29.25
2022-11-01T21:16:33.402Z,28.73
2022-11-01T21:18:45.190Z,29.13
2022-11-01T21:20:53.141Z,27.90
2022-11-01T21:23:03.919Z,27.75
2022-11-01T21:25:22.969Z,29.07
2022-11-01T21:27:32.658Z,28.17
2022-11-01T21:29:43.780Z,29.02
2022-11-01T21:31:51.066Z,29.42
2022-11-01T21:33:59.836Z,29.50
2022-11-01T21:36:17.255Z,30.10
2022-11-01T21:38:40.772Z,28.15
2022-11-01T21:40:47.747Z,30.17
2022-11-01T21:42:55.189Z,29.58
2022-11-01T21:45:05.536Z,28.73
2022-11-01T21:47:22.400Z,29.08
2022-11-01T21:49:31.635Z,27.98
2022-11-01T21:51:38.860Z,28.02
2022-11-01T21:53:46.148Z,27.77
2022-11-01T21:55:53.326Z,27.75
2022-11-01T21:58:00.449Z,28.33
2022-11-01T22:00:10.046Z,28.63
2022-11-01T22:02:18.166Z,29.40
2022-11-01T22:04:28.791Z,27.98
2022-11-01T22:06:35.980Z,27.98
2022-11-01T22:08:42.969Z,29.10
2022-11-01T22:10:50.254Z,26.30
2022-11-01T22:12:57.142Z,28.38
2022-11-01T22:15:04.106Z,27.73
2022-11-01T22:17:12.876Z,26.40
2022-11-01T22:19:20.056Z,27.83
2022-11-01T22:21:27.750Z,26.55
2022-11-01T22:23:34.677Z,24.13
2022-11-01T22:25:41.990Z,22.67
2022-11-01T22:27:49.654Z,22.35
2022-11-01T22:29:56.970Z,22.80
2022-11-01T22:32:04.002Z,22.80
2022-11-01T22:34:12.926Z,22.42
2022-11-01T22:36:26.979Z,22.40
2022-11-01T22:38:38.565Z,21.05
2022-11-01T22:40:45.771Z,22.52
2022-11-01T22:42:57.896Z,23.33
2022-11-01T22:45:05.177Z,22.73
2022-11-01T22:47:21.781Z,22.42
2022-11-01T22:49:32.290Z,20.52
2022-11-01T22:51:44.089Z,20.33
2022-11-01T22:55:59.211Z,20.45
2022-11-01T22:58:19.450Z,20.83
2022-11-01T23:00:32.877Z,20.42
2022-11-01T23:02:42.299Z,18.73
2022-11-01T23:04:51.234Z,18.80
2022-11-01T23:07:03.331Z,18.42
2022-11-01T23:09:18.243Z,16.95
2022-11-01T23:11:42.013Z,17.25
2022-11-01T23:14:06.092Z,16.95
2022-11-01T23:16:27.355Z,17.25
2022-11-01T23:18:36.024Z,20.33
2022-11-01T23:20:46.017Z,22.65
2022-11-01T23:22:53.148Z,22.05
2022-11-01T23:25:00.585Z,27.98
2022-11-01T23:27:07.870Z,31.85
2022-11-01T23:29:15.716Z,31.15
2022-11-01T23:31:23.768Z,30.95
2022-11-01T23:33:38.125Z,34.00
2022-11-01T23:35:55.797Z,32.97
2022-11-01T23:38:03.029Z,30.98
2022-11-01T23:40:18.402Z,30.80
2022-11-01T23:42:28.452Z,35.03
2022-11-01T23:44:37.735Z,54.88
2022-11-01T23:46:44.964Z,52.13
2022-11-01T23:48:52.718Z,48.75
2022-11-01T23:51:01.837Z,45.20
2022-11-01T23:53:13.849Z,47.35
2022-11-01T23:55:26.035Z,41.22
2022-11-01T23:57:33.372Z,33.90
2022-11-01T23:59:40.650Z,27.92
